Artemas, Pennsylvania
Current Conditions -  °F | °C
As of 5:08 AM on Wednesday 26 Nov 2014 (Local Time) from KCBE Reporting Station
Clear Clear  
Wind Chill: 39°   Ceiling: Unl
Heat Index: 39°   Visibility: 10mi
Dew Point: 28°   Wind: 0mph
Humidity: 65%   Direction: NA
Pressure: 30.15"   Gusts: NA
Location:  39.75°N, 78.44°W
Report Text: KCBE 261008Z AUTO 00000KT 10SM CLR 04/M02 A3015 RMK AO1
Loading
Personal Weather Stations






























Interactive Weather Map New forecast layout! Learn more

10-Day Weather Forecast

Advertisements
Track Severe Weather on mobile